createdAt,value
2018-07-26T00:09:22.832Z,96.30
2018-07-26T00:14:18.554Z,96.10
2018-07-26T00:19:13.082Z,96.20
2018-07-26T00:24:07.752Z,96.80
2018-07-26T00:29:02.764Z,97.70
2018-07-26T00:33:57.331Z,97.40
2018-07-26T00:38:51.792Z,98.70
2018-07-26T00:43:46.449Z,98.90
2018-07-26T00:48:41.138Z,98.70
2018-07-26T00:53:36.304Z,99.10
2018-07-26T01:08:19.743Z,99.70
2018-07-26T01:13:14.316Z,99.90
2018-07-26T01:18:08.831Z,99.90
2018-07-26T01:23:03.531Z,99.90
2018-07-26T01:27:57.985Z,99.90
2018-07-26T01:32:52.525Z,99.90
2018-07-26T01:42:58.398Z,99.90
2018-07-26T01:47:53.095Z,99.90
2018-07-26T01:52:47.549Z,99.90
2018-07-26T01:57:42.140Z,99.90
2018-07-26T02:02:36.620Z,99.90
2018-07-26T02:07:31.259Z,99.90
2018-07-26T02:12:25.842Z,99.90
2018-07-26T02:17:20.365Z,99.90
2018-07-26T02:22:15.202Z,99.90
2018-07-26T02:27:09.696Z,99.90
2018-07-26T02:32:04.202Z,99.90
2018-07-26T02:36:58.748Z,99.90
2018-07-26T02:41:53.336Z,99.90
2018-07-26T02:46:47.838Z,99.90
2018-07-26T02:51:42.504Z,99.90
2018-07-26T02:56:37.222Z,99.90
2018-07-26T03:01:31.794Z,99.90
2018-07-26T03:06:26.466Z,99.90
2018-07-26T03:11:20.973Z,99.90
2018-07-26T03:16:15.421Z,99.90
2018-07-26T03:21:09.907Z,99.90
2018-07-26T03:26:04.712Z,99.90
2018-07-26T03:30:59.195Z,99.90
2018-07-26T03:35:53.703Z,99.90
2018-07-26T03:40:48.203Z,99.90
2018-07-26T03:45:42.652Z,99.90
2018-07-26T03:50:37.330Z,99.90
2018-07-26T03:55:31.838Z,99.90
2018-07-26T04:00:26.329Z,99.90
2018-07-26T04:05:20.834Z,99.90
2018-07-26T04:10:15.467Z,99.90
2018-07-26T04:15:10.122Z,99.90
2018-07-26T04:20:04.913Z,99.90
2018-07-26T04:24:59.580Z,99.90
2018-07-26T04:29:54.291Z,99.90
2018-07-26T04:34:48.915Z,99.90
2018-07-26T04:39:43.556Z,99.90
2018-07-26T04:44:38.078Z,99.90
2018-07-26T04:54:26.893Z,99.90
2018-07-26T04:59:21.436Z,99.90
2018-07-26T05:04:15.887Z,99.90
2018-07-26T05:09:11.818Z,99.90
2018-07-26T05:19:00.717Z,99.90
2018-07-26T05:23:55.416Z,99.90
2018-07-26T05:28:50.124Z,99.90
2018-07-26T05:33:44.632Z,99.90
2018-07-26T05:38:39.124Z,98.80
2018-07-26T05:43:33.991Z,93.50
2018-07-26T05:48:28.794Z,85.80
2018-07-26T05:53:24.201Z,78.70
2018-07-26T05:58:19.405Z,74.50
2018-07-26T06:03:14.264Z,71.20
2018-07-26T06:08:09.413Z,72.40
2018-07-26T06:17:59.014Z,68.50
2018-07-26T06:22:53.952Z,67.00
2018-07-26T06:27:48.812Z,62.70
2018-07-26T06:37:38.735Z,56.10
2018-07-26T06:42:33.637Z,52.70
2018-07-26T06:52:22.936Z,44.70
2018-07-26T06:57:17.638Z,40.70
2018-07-26T07:02:12.448Z,36.10
2018-07-26T07:07:07.528Z,32.30
2018-07-26T07:12:06.027Z,29.20
2018-07-26T07:17:00.765Z,26.90
2018-07-26T07:21:55.499Z,24.70
2018-07-26T07:26:52.210Z,23.30
2018-07-26T07:31:47.249Z,22.40
2018-07-26T07:36:42.322Z,20.90
2018-07-26T07:46:31.735Z,20.00
2018-07-26T07:51:26.620Z,19.20
2018-07-26T07:56:21.530Z,19.00
2018-07-26T08:01:16.284Z,19.00
2018-07-26T08:06:13.859Z,18.50
2018-07-26T08:20:58.618Z,18.50
2018-07-26T08:25:53.644Z,18.00
2018-07-26T08:30:48.406Z,18.00
2018-07-26T08:35:43.147Z,17.40
2018-07-26T08:45:32.534Z,16.40
2018-07-26T08:50:27.572Z,15.70
2018-07-26T08:55:22.496Z,15.10
2018-07-26T09:00:19.316Z,14.90
2018-07-26T09:05:14.446Z,14.40
2018-07-26T09:10:09.198Z,13.80
2018-07-26T09:19:58.547Z,13.70
2018-07-26T09:24:53.292Z,13.90
2018-07-26T09:29:48.004Z,13.40
2018-07-26T09:34:42.750Z,12.90
2018-07-26T09:49:27.352Z,13.20
2018-07-26T09:54:22.577Z,13.60
2018-07-26T09:59:17.292Z,14.20
2018-07-26T10:04:13.001Z,16.30
2018-07-26T10:09:11.643Z,18.40
2018-07-26T10:14:08.679Z,20.00
2018-07-26T10:19:03.533Z,21.70
2018-07-26T10:23:58.620Z,22.90
2018-07-26T10:28:53.428Z,23.80
2018-07-26T10:33:48.142Z,25.00
2018-07-26T10:38:42.944Z,26.20
2018-07-26T10:43:37.916Z,26.60
2018-07-26T10:48:32.626Z,27.50
2018-07-26T10:53:27.445Z,28.00
2018-07-26T10:58:22.490Z,28.60
2018-07-26T11:08:12.916Z,29.70
2018-07-26T11:13:07.715Z,29.80
2018-07-26T11:18:02.846Z,29.40
2018-07-26T11:22:58.480Z,30.00
2018-07-26T11:27:53.702Z,30.10
2018-07-26T11:32:48.784Z,30.40
2018-07-26T11:37:43.722Z,30.50
2018-07-26T11:42:38.914Z,30.50
2018-07-26T11:47:33.652Z,30.00
2018-07-26T11:52:28.386Z,29.80
2018-07-26T11:57:23.340Z,29.80
2018-07-26T12:02:19.241Z,29.30
2018-07-26T12:07:14.092Z,29.10
2018-07-26T12:12:09.882Z,28.80
2018-07-26T12:17:04.755Z,29.00
2018-07-26T12:21:59.678Z,29.20
2018-07-26T12:26:54.589Z,28.70
2018-07-26T12:31:49.762Z,28.40
2018-07-26T12:36:44.493Z,28.20
2018-07-26T12:46:34.759Z,28.00
2018-07-26T12:51:29.531Z,27.80
2018-07-26T12:56:24.281Z,27.80
2018-07-26T13:01:19.053Z,27.70
2018-07-26T13:06:14.304Z,28.20
2018-07-26T13:11:09.038Z,28.40
2018-07-26T13:16:03.792Z,28.40
2018-07-26T13:20:58.949Z,28.10
2018-07-26T13:25:53.673Z,27.90
2018-07-26T13:30:48.690Z,28.10
2018-07-26T13:35:43.805Z,27.70
2018-07-26T13:40:38.543Z,27.50
2018-07-26T13:45:38.848Z,26.70
2018-07-26T13:50:33.587Z,26.60
2018-07-26T13:55:28.296Z,26.50
2018-07-26T14:00:23.284Z,26.70
2018-07-26T14:10:12.570Z,26.60
2018-07-26T14:15:09.241Z,26.00
2018-07-26T14:20:04.916Z,26.10
2018-07-26T14:25:01.023Z,25.60
2018-07-26T14:29:56.578Z,25.60
2018-07-26T14:34:51.626Z,25.50
2018-07-26T14:39:50.284Z,25.50
2018-07-26T14:44:46.892Z,25.30
2018-07-26T14:49:44.047Z,25.30
2018-07-26T14:54:40.878Z,25.50
2018-07-26T14:59:36.795Z,25.60
2018-07-26T15:04:31.909Z,25.40
2018-07-26T15:09:26.634Z,25.20
2018-07-26T15:14:21.634Z,25.10
2018-07-26T15:19:17.029Z,25.10
2018-07-26T15:24:11.798Z,24.80
2018-07-26T15:29:07.449Z,24.70
2018-07-26T15:34:02.191Z,24.50
2018-07-26T15:38:57.258Z,24.50
2018-07-26T15:48:46.899Z,24.50
2018-07-26T15:53:41.954Z,24.40
2018-07-26T15:58:36.780Z,24.30
2018-07-26T16:03:32.143Z,24.70
2018-07-26T16:08:27.390Z,24.90
2018-07-26T16:13:22.145Z,25.20
2018-07-26T16:18:17.178Z,25.40
2018-07-26T16:23:12.163Z,26.10
2018-07-26T16:28:07.070Z,25.60
2018-07-26T16:33:01.887Z,26.60
2018-07-26T16:37:56.768Z,27.50
2018-07-26T16:42:51.510Z,28.00
2018-07-26T16:47:46.291Z,27.90
2018-07-26T16:52:41.130Z,27.50
2018-07-26T16:57:35.851Z,29.60
2018-07-26T17:02:30.581Z,30.80
2018-07-26T17:07:25.522Z,31.80
2018-07-26T17:12:20.325Z,32.90
2018-07-26T17:17:15.960Z,33.50
2018-07-26T17:22:10.720Z,34.40
2018-07-26T17:27:05.540Z,34.70
2018-07-26T17:32:00.426Z,35.50
2018-07-26T17:36:55.420Z,35.90
2018-07-26T17:41:50.228Z,36.80
2018-07-26T17:46:45.015Z,37.50
2018-07-26T17:51:39.759Z,38.30
2018-07-26T18:01:29.154Z,40.00
2018-07-26T18:06:23.902Z,39.90
2018-07-26T18:16:13.132Z,41.10
2018-07-26T18:21:07.862Z,42.00
2018-07-26T18:26:02.627Z,42.30
2018-07-26T18:30:58.044Z,42.70
2018-07-26T18:35:52.770Z,43.30
2018-07-26T18:40:47.482Z,43.90
2018-07-26T18:45:42.755Z,44.40
2018-07-26T18:50:37.636Z,45.30
2018-07-26T18:55:32.654Z,45.80
2018-07-26T19:05:22.424Z,45.90
2018-07-26T19:10:17.242Z,47.10
2018-07-26T19:15:12.776Z,47.20
2018-07-26T19:20:09.115Z,48.00
2018-07-26T19:25:04.163Z,49.20
2018-07-26T19:29:59.958Z,50.70
2018-07-26T19:34:54.706Z,52.30
2018-07-26T19:39:49.449Z,53.50
2018-07-26T19:44:44.436Z,54.40
2018-07-26T19:49:39.155Z,54.80
2018-07-26T19:54:34.013Z,56.20
2018-07-26T19:59:28.736Z,57.50
2018-07-26T20:04:24.164Z,57.30
2018-07-26T20:09:19.270Z,57.70
2018-07-26T20:14:14.116Z,58.50
2018-07-26T20:19:09.579Z,59.00
2018-07-26T20:24:04.748Z,57.00
2018-07-26T20:28:59.623Z,57.00
2018-07-26T20:38:50.199Z,58.50
2018-07-26T20:43:45.119Z,58.70
2018-07-26T20:48:40.211Z,59.20
2018-07-26T21:08:18.892Z,62.20
2018-07-26T21:13:14.074Z,62.70
2018-07-26T21:18:09.047Z,63.10
2018-07-26T21:23:04.104Z,63.40
2018-07-26T21:32:53.349Z,65.70
2018-07-26T21:37:49.704Z,65.80
2018-07-26T21:42:44.704Z,66.80
2018-07-26T21:47:40.163Z,67.20
2018-07-26T21:52:35.588Z,68.20
2018-07-26T21:57:30.391Z,69.20
2018-07-26T22:02:25.071Z,70.80
2018-07-26T22:07:20.473Z,71.40
2018-07-26T22:17:09.650Z,71.00
2018-07-26T22:22:04.197Z,71.60
2018-07-26T22:27:00.087Z,72.40
2018-07-26T22:31:55.082Z,72.90
2018-07-26T22:36:51.951Z,70.00
2018-07-26T22:41:48.755Z,66.20
2018-07-26T22:46:43.260Z,63.90
2018-07-26T22:51:38.741Z,62.60
2018-07-26T22:56:33.538Z,60.10
2018-07-26T23:01:28.639Z,58.40
2018-07-26T23:06:23.828Z,57.00
2018-07-26T23:11:21.527Z,56.50
2018-07-26T23:16:15.974Z,56.70
2018-07-26T23:26:05.057Z,57.30
2018-07-26T23:30:59.703Z,56.90
2018-07-26T23:35:54.224Z,57.70
2018-07-26T23:40:48.958Z,57.20
2018-07-26T23:45:43.420Z,57.20
2018-07-26T23:50:37.873Z,57.00
2018-07-26T23:55:32.392Z,57.20
